Terminal Aerodrome Forecast
Issued by NWS

Home | Current Version | Previous Version | Text Only | Print | Product List | Glossary On
Versions: 1 2 3 4 5 6 7 8 9 10 11 12 13 14 15 16 17
061
FTUS46 KSGX 251120
TAFTRM
TAF
KTRM 251120Z 2512/2612 VRB05KT P6SM SKC
     FM260300 32012KT P6SM BKN150
     FM261000 33006KT P6SM BKN100=

USA.gov is the U.S. government's official web portal to all federal, state and local government web resources and services.